sensor_id;sensor_type;location;lat;lon;timestamp;temperature;humidity
20035;DHT22;10178;48.034;9.800;2023-02-28T00:01:20;1.30;99.90
20035;DHT22;10178;48.034;9.800;2023-02-28T00:03:46;1.60;99.90
20035;DHT22;10178;48.034;9.800;2023-02-28T00:06:12;1.60;99.90
20035;DHT22;10178;48.034;9.800;2023-02-28T00:08:38;1.80;99.90
20035;DHT22;10178;48.034;9.800;2023-02-28T00:11:07;1.60;99.90
20035;DHT22;10178;48.034;9.800;2023-02-28T00:13:34;1.70;99.90
20035;DHT22;10178;48.034;9.800;2023-02-28T00:16:04;1.80;99.90
20035;DHT22;10178;48.034;9.800;2023-02-28T00:18:30;1.90;99.90
20035;DHT22;10178;48.034;9.800;2023-02-28T00:20:55;1.80;99.90
20035;DHT22;10178;48.034;9.800;2023-02-28T00:23:21;1.30;99.90
20035;DHT22;10178;48.034;9.800;2023-02-28T00:25:47;1.50;99.90
20035;DHT22;10178;48.034;9.800;2023-02-28T00:28:12;1.70;99.90
20035;DHT22;10178;48.034;9.800;2023-02-28T00:30:38;1.80;99.90
20035;DHT22;10178;48.034;9.800;2023-02-28T00:33:04;1.80;99.90
20035;DHT22;10178;48.034;9.800;2023-02-28T00:35:29;1.80;99.90
20035;DHT22;10178;48.034;9.800;2023-02-28T00:37:55;1.80;99.90
20035;DHT22;10178;48.034;9.800;2023-02-28T00:40:21;1.80;99.90
20035;DHT22;10178;48.034;9.800;2023-02-28T00:42:46;1.70;99.90
20035;DHT22;10178;48.034;9.800;2023-02-28T00:45:12;1.60;99.90
20035;DHT22;10178;48.034;9.800;2023-02-28T00:47:37;1.70;99.90
20035;DHT22;10178;48.034;9.800;2023-02-28T00:50:04;1.80;99.90
20035;DHT22;10178;48.034;9.800;2023-02-28T00:52:30;1.50;99.90
20035;DHT22;10178;48.034;9.800;2023-02-28T00:54:56;1.60;99.90
20035;DHT22;10178;48.034;9.800;2023-02-28T00:57:21;1.70;99.90
20035;DHT22;10178;48.034;9.800;2023-02-28T00:59:47;1.70;99.90
20035;DHT22;10178;48.034;9.800;2023-02-28T01:02:13;1.70;99.90
20035;DHT22;10178;48.034;9.800;2023-02-28T01:04:39;1.80;99.90
20035;DHT22;10178;48.034;9.800;2023-02-28T01:07:04;1.70;99.90
20035;DHT22;10178;48.034;9.800;2023-02-28T01:09:30;1.70;99.90
20035;DHT22;10178;48.034;9.800;2023-02-28T01:11:56;1.70;99.90
20035;DHT22;10178;48.034;9.800;2023-02-28T01:14:21;1.70;99.90
20035;DHT22;10178;48.034;9.800;2023-02-28T01:16:47;1.60;99.90
20035;DHT22;10178;48.034;9.800;2023-02-28T01:19:13;1.30;99.90
20035;DHT22;10178;48.034;9.800;2023-02-28T01:21:39;1.40;99.90
20035;DHT22;10178;48.034;9.800;2023-02-28T01:24:05;1.50;99.90
20035;DHT22;10178;48.034;9.800;2023-02-28T01:26:31;1.60;99.90
20035;DHT22;10178;48.034;9.800;2023-02-28T01:28:57;1.60;99.90
20035;DHT22;10178;48.034;9.800;2023-02-28T01:31:23;1.80;99.90
20035;DHT22;10178;48.034;9.800;2023-02-28T01:33:49;1.70;99.90
20035;DHT22;10178;48.034;9.800;2023-02-28T01:36:17;1.60;99.90
20035;DHT22;10178;48.034;9.800;2023-02-28T01:38:44;1.70;99.90
20035;DHT22;10178;48.034;9.800;2023-02-28T01:41:22;1.60;99.90
20035;DHT22;10178;48.034;9.800;2023-02-28T01:46:14;1.60;99.90
20035;DHT22;10178;48.034;9.800;2023-02-28T01:48:46;1.60;99.90
20035;DHT22;10178;48.034;9.800;2023-02-28T01:51:17;1.60;99.90
20035;DHT22;10178;48.034;9.800;2023-02-28T01:53:47;1.50;99.90
20035;DHT22;10178;48.034;9.800;2023-02-28T01:56:17;1.60;99.90
20035;DHT22;10178;48.034;9.800;2023-02-28T01:58:47;1.60;99.90
20035;DHT22;10178;48.034;9.800;2023-02-28T02:01:13;1.70;99.90
20035;DHT22;10178;48.034;9.800;2023-02-28T02:03:51;1.70;99.90
20035;DHT22;10178;48.034;9.800;2023-02-28T02:06:25;1.40;99.90
20035;DHT22;10178;48.034;9.800;2023-02-28T02:08:52;1.50;99.90
20035;DHT22;10178;48.034;9.800;2023-02-28T02:11:20;1.30;99.90
20035;DHT22;10178;48.034;9.800;2023-02-28T02:39:23;1.50;99.90
20035;DHT22;10178;48.034;9.800;2023-02-28T02:41:53;1.00;99.90
20035;DHT22;10178;48.034;9.800;2023-02-28T02:44:26;0.80;99.90
20035;DHT22;10178;48.034;9.800;2023-02-28T02:47:09;1.00;99.90
20035;DHT22;10178;48.034;9.800;2023-02-28T02:49:38;1.20;99.90
20035;DHT22;10178;48.034;9.800;2023-02-28T02:52:07;0.50;99.90
20035;DHT22;10178;48.034;9.800;2023-02-28T02:54:36;0.80;99.90
20035;DHT22;10178;48.034;9.800;2023-02-28T02:57:10;0.80;99.90
20035;DHT22;10178;48.034;9.800;2023-02-28T02:59:39;0.30;99.90
20035;DHT22;10178;48.034;9.800;2023-02-28T03:02:08;0.60;99.90
20035;DHT22;10178;48.034;9.800;2023-02-28T03:04:42;0.90;99.90
20035;DHT22;10178;48.034;9.800;2023-02-28T03:07:09;1.10;99.90
20035;DHT22;10178;48.034;9.800;2023-02-28T03:09:35;1.30;99.90
20035;DHT22;10178;48.034;9.800;2023-02-28T03:12:06;1.40;99.90
20035;DHT22;10178;48.034;9.800;2023-02-28T03:20:15;1.10;99.90
20035;DHT22;10178;48.034;9.800;2023-02-28T03:22:48;1.20;99.90
20035;DHT22;10178;48.034;9.800;2023-02-28T03:25:52;1.00;99.90
20035;DHT22;10178;48.034;9.800;2023-02-28T03:28:17;1.20;99.90
20035;DHT22;10178;48.034;9.800;2023-02-28T03:30:58;1.30;99.90
20035;DHT22;10178;48.034;9.800;2023-02-28T03:36:01;0.80;99.90
20035;DHT22;10178;48.034;9.800;2023-02-28T03:41:21;0.90;99.90
20035;DHT22;10178;48.034;9.800;2023-02-28T03:43:54;1.10;99.90
20035;DHT22;10178;48.034;9.800;2023-02-28T03:46:25;1.00;99.90
20035;DHT22;10178;48.034;9.800;2023-02-28T03:49:06;-0.10;99.90
20035;DHT22;10178;48.034;9.800;2023-02-28T03:51:36;-0.10;99.90
20035;DHT22;10178;48.034;9.800;2023-02-28T03:54:10;0.30;99.90
20035;DHT22;10178;48.034;9.800;2023-02-28T03:56:42;0.70;99.90
20035;DHT22;10178;48.034;9.800;2023-02-28T03:59:22;0.90;99.90
20035;DHT22;10178;48.034;9.800;2023-02-28T04:01:51;1.10;99.90
20035;DHT22;10178;48.034;9.800;2023-02-28T04:04:17;1.00;99.90
20035;DHT22;10178;48.034;9.800;2023-02-28T04:06:44;0.90;99.90
20035;DHT22;10178;48.034;9.800;2023-02-28T04:09:13;1.00;99.90
20035;DHT22;10178;48.034;9.800;2023-02-28T04:11:40;1.10;99.90
20035;DHT22;10178;48.034;9.800;2023-02-28T04:14:07;1.20;99.90
20035;DHT22;10178;48.034;9.800;2023-02-28T04:16:35;1.30;99.90
20035;DHT22;10178;48.034;9.800;2023-02-28T04:19:05;1.20;99.90
20035;DHT22;10178;48.034;9.800;2023-02-28T04:21:36;0.90;99.90
20035;DHT22;10178;48.034;9.800;2023-02-28T04:24:04;0.00;99.90
20035;DHT22;10178;48.034;9.800;2023-02-28T04:26:31;0.30;99.90
20035;DHT22;10178;48.034;9.800;2023-02-28T04:28:58;0.10;99.90
20035;DHT22;10178;48.034;9.800;2023-02-28T04:31:24;0.20;99.90
20035;DHT22;10178;48.034;9.800;2023-02-28T04:33:49;0.30;99.90
20035;DHT22;10178;48.034;9.800;2023-02-28T04:36:15;0.00;99.90
20035;DHT22;10178;48.034;9.800;2023-02-28T04:38:44;0.30;99.90
20035;DHT22;10178;48.034;9.800;2023-02-28T04:41:10;0.70;99.90
20035;DHT22;10178;48.034;9.800;2023-02-28T04:43:36;0.60;99.90
20035;DHT22;10178;48.034;9.800;2023-02-28T04:46:03;0.70;99.90
20035;DHT22;10178;48.034;9.800;2023-02-28T04:48:31;0.80;99.90
20035;DHT22;10178;48.034;9.800;2023-02-28T04:51:05;1.00;99.90
20035;DHT22;10178;48.034;9.800;2023-02-28T04:53:31;0.70;99.90
20035;DHT22;10178;48.034;9.800;2023-02-28T04:55:57;0.10;99.90
20035;DHT22;10178;48.034;9.800;2023-02-28T04:58:22;0.10;99.90
20035;DHT22;10178;48.034;9.800;2023-02-28T05:00:52;0.20;99.90
20035;DHT22;10178;48.034;9.800;2023-02-28T05:03:18;0.50;99.90
20035;DHT22;10178;48.034;9.800;2023-02-28T05:05:46;0.50;99.90
20035;DHT22;10178;48.034;9.800;2023-02-28T05:08:12;0.60;99.90
20035;DHT22;10178;48.034;9.800;2023-02-28T05:10:38;0.60;99.90
20035;DHT22;10178;48.034;9.800;2023-02-28T05:13:04;0.60;99.90
20035;DHT22;10178;48.034;9.800;2023-02-28T05:15:29;0.60;99.90
20035;DHT22;10178;48.034;9.800;2023-02-28T05:17:55;0.70;99.90
20035;DHT22;10178;48.034;9.800;2023-02-28T05:20:21;0.80;99.90
20035;DHT22;10178;48.034;9.800;2023-02-28T05:22:46;0.60;99.90
20035;DHT22;10178;48.034;9.800;2023-02-28T05:25:15;0.60;99.90
20035;DHT22;10178;48.034;9.800;2023-02-28T05:27:41;0.70;99.90
20035;DHT22;10178;48.034;9.800;2023-02-28T05:30:08;0.50;99.90
20035;DHT22;10178;48.034;9.800;2023-02-28T05:32:36;0.00;99.90
20035;DHT22;10178;48.034;9.800;2023-02-28T05:35:02;0.30;99.90
20035;DHT22;10178;48.034;9.800;2023-02-28T05:37:28;0.40;99.90
20035;DHT22;10178;48.034;9.800;2023-02-28T05:39:53;0.10;99.90
20035;DHT22;10178;48.034;9.800;2023-02-28T05:42:19;0.10;99.90
20035;DHT22;10178;48.034;9.800;2023-02-28T05:44:45;-0.10;99.90
20035;DHT22;10178;48.034;9.800;2023-02-28T05:47:11;-0.40;99.90
20035;DHT22;10178;48.034;9.800;2023-02-28T05:49:38;-0.20;99.90
20035;DHT22;10178;48.034;9.800;2023-02-28T05:52:03;-0.20;99.90
20035;DHT22;10178;48.034;9.800;2023-02-28T05:54:29;0.00;99.90
20035;DHT22;10178;48.034;9.800;2023-02-28T05:56:55;0.20;99.90
20035;DHT22;10178;48.034;9.800;2023-02-28T05:59:20;0.40;99.90
20035;DHT22;10178;48.034;9.800;2023-02-28T06:01:46;0.60;99.90
20035;DHT22;10178;48.034;9.800;2023-02-28T06:04:16;0.30;99.90
20035;DHT22;10178;48.034;9.800;2023-02-28T06:06:45;0.50;99.90
20035;DHT22;10178;48.034;9.800;2023-02-28T06:09:11;0.60;99.90
20035;DHT22;10178;48.034;9.800;2023-02-28T06:11:37;0.50;99.90
20035;DHT22;10178;48.034;9.800;2023-02-28T06:14:03;0.20;99.90
20035;DHT22;10178;48.034;9.800;2023-02-28T06:16:31;0.10;99.90
20035;DHT22;10178;48.034;9.800;2023-02-28T06:18:58;0.40;99.90
20035;DHT22;10178;48.034;9.800;2023-02-28T06:21:24;0.30;99.90
20035;DHT22;10178;48.034;9.800;2023-02-28T06:23:50;0.00;99.90
20035;DHT22;10178;48.034;9.800;2023-02-28T06:26:16;0.00;99.90
20035;DHT22;10178;48.034;9.800;2023-02-28T06:28:41;-0.40;99.90
20035;DHT22;10178;48.034;9.800;2023-02-28T06:31:12;-0.80;99.90
20035;DHT22;10178;48.034;9.800;2023-02-28T06:33:39;-0.50;99.90
20035;DHT22;10178;48.034;9.800;2023-02-28T06:36:05;-0.50;99.90
20035;DHT22;10178;48.034;9.800;2023-02-28T06:38:32;-0.80;99.90
20035;DHT22;10178;48.034;9.800;2023-02-28T06:40:59;-1.00;99.90
20035;DHT22;10178;48.034;9.800;2023-02-28T06:43:28;-0.70;99.90
20035;DHT22;10178;48.034;9.800;2023-02-28T06:45:55;-0.50;99.90
20035;DHT22;10178;48.034;9.800;2023-02-28T06:48:21;-0.20;99.90
20035;DHT22;10178;48.034;9.800;2023-02-28T06:50:46;-0.40;99.90
20035;DHT22;10178;48.034;9.800;2023-02-28T06:53:12;-0.40;99.90
20035;DHT22;10178;48.034;9.800;2023-02-28T06:55:39;0.10;99.90
20035;DHT22;10178;48.034;9.800;2023-02-28T06:58:05;0.40;99.90
20035;DHT22;10178;48.034;9.800;2023-02-28T07:00:41;0.40;99.90
20035;DHT22;10178;48.034;9.800;2023-02-28T07:03:07;-0.10;99.90
20035;DHT22;10178;48.034;9.800;2023-02-28T07:05:35;-0.10;99.90
20035;DHT22;10178;48.034;9.800;2023-02-28T07:08:01;0.10;99.90
20035;DHT22;10178;48.034;9.800;2023-02-28T07:10:27;0.30;99.90
20035;DHT22;10178;48.034;9.800;2023-02-28T07:12:52;-0.60;99.90
20035;DHT22;10178;48.034;9.800;2023-02-28T07:15:18;-0.70;99.90
20035;DHT22;10178;48.034;9.800;2023-02-28T07:17:43;-0.80;99.90
20035;DHT22;10178;48.034;9.800;2023-02-28T07:20:09;-0.40;99.90
20035;DHT22;10178;48.034;9.800;2023-02-28T07:22:35;-0.40;99.90
20035;DHT22;10178;48.034;9.800;2023-02-28T07:25:01;-0.20;99.90
20035;DHT22;10178;48.034;9.800;2023-02-28T07:27:27;0.00;99.90
20035;DHT22;10178;48.034;9.800;2023-02-28T07:29:54;0.50;99.90
20035;DHT22;10178;48.034;9.800;2023-02-28T07:32:20;0.90;99.90
20035;DHT22;10178;48.034;9.800;2023-02-28T07:34:46;0.70;99.90
20035;DHT22;10178;48.034;9.800;2023-02-28T07:37:11;0.90;99.90
20035;DHT22;10178;48.034;9.800;2023-02-28T07:39:37;0.90;99.90
20035;DHT22;10178;48.034;9.800;2023-02-28T07:42:06;1.20;99.90
20035;DHT22;10178;48.034;9.800;2023-02-28T07:44:34;1.40;99.90
20035;DHT22;10178;48.034;9.800;2023-02-28T07:47:00;1.10;99.90
20035;DHT22;10178;48.034;9.800;2023-02-28T07:49:26;1.30;99.90
20035;DHT22;10178;48.034;9.800;2023-02-28T07:51:52;0.80;99.90
20035;DHT22;10178;48.034;9.800;2023-02-28T07:54:17;1.10;99.90
20035;DHT22;10178;48.034;9.800;2023-02-28T07:56:43;1.20;99.90
20035;DHT22;10178;48.034;9.800;2023-02-28T07:59:08;1.10;99.90
20035;DHT22;10178;48.034;9.800;2023-02-28T08:01:34;1.50;99.90
20035;DHT22;10178;48.034;9.800;2023-02-28T08:04:00;1.70;99.90
20035;DHT22;10178;48.034;9.800;2023-02-28T08:06:25;1.90;99.90
20035;DHT22;10178;48.034;9.800;2023-02-28T08:08:52;1.30;99.90
20035;DHT22;10178;48.034;9.800;2023-02-28T08:11:18;1.00;99.90
20035;DHT22;10178;48.034;9.800;2023-02-28T08:13:45;0.60;99.90
20035;DHT22;10178;48.034;9.800;2023-02-28T08:16:12;0.80;99.90
20035;DHT22;10178;48.034;9.800;2023-02-28T08:18:42;0.40;99.90
20035;DHT22;10178;48.034;9.800;2023-02-28T08:21:09;0.30;99.90
20035;DHT22;10178;48.034;9.800;2023-02-28T08:23:35;-0.30;99.90
20035;DHT22;10178;48.034;9.800;2023-02-28T08:26:01;-0.80;99.90
20035;DHT22;10178;48.034;9.800;2023-02-28T08:28:27;-1.10;99.90
20035;DHT22;10178;48.034;9.800;2023-02-28T08:30:53;-0.90;99.90
20035;DHT22;10178;48.034;9.800;2023-02-28T08:33:19;-0.30;99.90
20035;DHT22;10178;48.034;9.800;2023-02-28T08:35:44;0.00;99.90
20035;DHT22;10178;48.034;9.800;2023-02-28T08:38:10;-0.40;99.90
20035;DHT22;10178;48.034;9.800;2023-02-28T08:40:35;-0.80;99.90
20035;DHT22;10178;48.034;9.800;2023-02-28T08:43:01;-0.70;99.90
20035;DHT22;10178;48.034;9.800;2023-02-28T08:45:27;-0.70;99.90
20035;DHT22;10178;48.034;9.800;2023-02-28T08:47:54;-0.60;99.90
20035;DHT22;10178;48.034;9.800;2023-02-28T08:50:21;-0.20;99.90
20035;DHT22;10178;48.034;9.800;2023-02-28T08:52:47;-0.40;99.90
20035;DHT22;10178;48.034;9.800;2023-02-28T08:55:13;0.10;99.90
20035;DHT22;10178;48.034;9.800;2023-02-28T08:57:38;-0.10;99.90
20035;DHT22;10178;48.034;9.800;2023-02-28T09:00:04;-0.20;99.90
20035;DHT22;10178;48.034;9.800;2023-02-28T09:02:31;-0.30;99.90
20035;DHT22;10178;48.034;9.800;2023-02-28T09:04:57;0.60;99.90
20035;DHT22;10178;48.034;9.800;2023-02-28T09:07:24;1.20;99.90
20035;DHT22;10178;48.034;9.800;2023-02-28T09:09:49;1.70;99.90
20035;DHT22;10178;48.034;9.800;2023-02-28T09:12:23;1.70;99.90
20035;DHT22;10178;48.034;9.800;2023-02-28T09:14:57;1.90;99.90
20035;DHT22;10178;48.034;9.800;2023-02-28T09:17:23;1.90;99.90
20035;DHT22;10178;48.034;9.800;2023-02-28T09:19:49;1.70;99.90
20035;DHT22;10178;48.034;9.800;2023-02-28T09:22:15;1.50;99.90
20035;DHT22;10178;48.034;9.800;2023-02-28T09:24:41;1.30;99.90
20035;DHT22;10178;48.034;9.800;2023-02-28T09:27:06;0.80;99.90
20035;DHT22;10178;48.034;9.800;2023-02-28T09:29:34;0.10;99.90
20035;DHT22;10178;48.034;9.800;2023-02-28T09:32:00;0.10;99.90
20035;DHT22;10178;48.034;9.800;2023-02-28T09:34:27;0.20;99.90
20035;DHT22;10178;48.034;9.800;2023-02-28T09:36:53;0.70;99.90
20035;DHT22;10178;48.034;9.800;2023-02-28T09:39:21;0.40;99.90
20035;DHT22;10178;48.034;9.800;2023-02-28T09:41:50;0.20;99.90
20035;DHT22;10178;48.034;9.800;2023-02-28T09:44:32;-0.10;99.90
20035;DHT22;10178;48.034;9.800;2023-02-28T09:49:52;0.10;99.90
20035;DHT22;10178;48.034;9.800;2023-02-28T09:52:21;-0.10;99.90
20035;DHT22;10178;48.034;9.800;2023-02-28T09:54:47;0.20;99.90
20035;DHT22;10178;48.034;9.800;2023-02-28T09:57:24;0.60;99.90
20035;DHT22;10178;48.034;9.800;2023-02-28T10:00:16;0.90;99.90
20035;DHT22;10178;48.034;9.800;2023-02-28T10:06:22;1.40;99.90
20035;DHT22;10178;48.034;9.800;2023-02-28T10:11:16;1.80;99.90
20035;DHT22;10178;48.034;9.800;2023-02-28T10:14:02;2.00;99.90
20035;DHT22;10178;48.034;9.800;2023-02-28T10:17:02;2.20;99.90
20035;DHT22;10178;48.034;9.800;2023-02-28T10:19:44;2.20;99.90
20035;DHT22;10178;48.034;9.800;2023-02-28T10:25:24;2.20;99.90
20035;DHT22;10178;48.034;9.800;2023-02-28T10:27:53;2.20;99.90
20035;DHT22;10178;48.034;9.800;2023-02-28T10:30:19;2.00;99.90
20035;DHT22;10178;48.034;9.800;2023-02-28T10:32:50;1.70;99.90
20035;DHT22;10178;48.034;9.800;2023-02-28T10:35:19;1.90;99.90
20035;DHT22;10178;48.034;9.800;2023-02-28T10:37:47;1.70;99.90
20035;DHT22;10178;48.034;9.800;2023-02-28T10:46:09;1.40;99.90
20035;DHT22;10178;48.034;9.800;2023-02-28T10:48:44;1.20;99.90
20035;DHT22;10178;48.034;9.800;2023-02-28T10:51:12;1.50;99.90
20035;DHT22;10178;48.034;9.800;2023-02-28T10:53:59;1.60;99.90
20035;DHT22;10178;48.034;9.800;2023-02-28T10:56:25;1.70;99.90
20035;DHT22;10178;48.034;9.800;2023-02-28T10:59:27;1.90;99.90
20035;DHT22;10178;48.034;9.800;2023-02-28T11:01:53;1.80;99.90
20035;DHT22;10178;48.034;9.800;2023-02-28T11:04:32;1.70;99.90
20035;DHT22;10178;48.034;9.800;2023-02-28T11:07:04;1.90;99.90
20035;DHT22;10178;48.034;9.800;2023-02-28T11:09:39;1.60;99.90
20035;DHT22;10178;48.034;9.800;2023-02-28T11:12:07;1.80;99.90
20035;DHT22;10178;48.034;9.800;2023-02-28T11:14:47;1.90;99.90
20035;DHT22;10178;48.034;9.800;2023-02-28T11:17:25;1.90;99.90
20035;DHT22;10178;48.034;9.800;2023-02-28T11:19:54;1.80;99.90
20035;DHT22;10178;48.034;9.800;2023-02-28T11:22:26;1.70;99.90
20035;DHT22;10178;48.034;9.800;2023-02-28T11:24:55;1.30;99.90
20035;DHT22;10178;48.034;9.800;2023-02-28T11:29:51;1.70;99.90
20035;DHT22;10178;48.034;9.800;2023-02-28T11:32:20;1.80;99.90
20035;DHT22;10178;48.034;9.800;2023-02-28T11:34:59;1.90;99.90
20035;DHT22;10178;48.034;9.800;2023-02-28T11:37:27;2.00;99.90
20035;DHT22;10178;48.034;9.800;2023-02-28T11:39:54;1.70;99.90
20035;DHT22;10178;48.034;9.800;2023-02-28T11:42:40;1.90;99.90
20035;DHT22;10178;48.034;9.800;2023-02-28T11:45:17;2.00;99.90
20035;DHT22;10178;48.034;9.800;2023-02-28T11:47:52;1.80;99.90
20035;DHT22;10178;48.034;9.800;2023-02-28T11:53:05;1.80;99.90
20035;DHT22;10178;48.034;9.800;2023-02-28T12:04:01;1.90;99.90
20035;DHT22;10178;48.034;9.800;2023-02-28T12:12:21;1.60;99.90
20035;DHT22;10178;48.034;9.800;2023-02-28T12:18:19;1.60;99.90
20035;DHT22;10178;48.034;9.800;2023-02-28T12:26:46;1.00;99.90
20035;DHT22;10178;48.034;9.800;2023-02-28T12:29:23;1.10;99.90
20035;DHT22;10178;48.034;9.800;2023-02-28T12:31:55;1.40;99.90
20035;DHT22;10178;48.034;9.800;2023-02-28T12:34:42;1.70;99.90
20035;DHT22;10178;48.034;9.800;2023-02-28T12:37:17;1.60;99.90
20035;DHT22;10178;48.034;9.800;2023-02-28T12:39:48;1.50;99.90
20035;DHT22;10178;48.034;9.800;2023-02-28T12:44:56;1.90;99.90
20035;DHT22;10178;48.034;9.800;2023-02-28T12:47:23;1.40;99.90
20035;DHT22;10178;48.034;9.800;2023-02-28T12:49:53;0.40;99.90
20035;DHT22;10178;48.034;9.800;2023-02-28T12:52:53;0.50;99.90
20035;DHT22;10178;48.034;9.800;2023-02-28T13:02:06;0.90;99.90
20035;DHT22;10178;48.034;9.800;2023-02-28T13:04:46;0.20;99.90
20035;DHT22;10178;48.034;9.800;2023-02-28T13:07:33;0.00;99.90
20035;DHT22;10178;48.034;9.800;2023-02-28T13:10:04;0.20;99.90
20035;DHT22;10178;48.034;9.800;2023-02-28T13:12:32;0.40;99.90
20035;DHT22;10178;48.034;9.800;2023-02-28T13:15:08;0.60;99.90
20035;DHT22;10178;48.034;9.800;2023-02-28T13:17:39;0.70;99.90
20035;DHT22;10178;48.034;9.800;2023-02-28T13:20:16;0.80;99.90
20035;DHT22;10178;48.034;9.800;2023-02-28T13:22:45;0.60;99.90
20035;DHT22;10178;48.034;9.800;2023-02-28T13:27:55;0.80;99.90
20035;DHT22;10178;48.034;9.800;2023-02-28T13:33:31;0.80;99.90
20035;DHT22;10178;48.034;9.800;2023-02-28T13:38:44;1.40;99.90
20035;DHT22;10178;48.034;9.800;2023-02-28T13:44:21;1.50;99.90
20035;DHT22;10178;48.034;9.800;2023-02-28T14:02:59;0.80;99.90
20035;DHT22;10178;48.034;9.800;2023-02-28T14:05:30;0.80;99.90
20035;DHT22;10178;48.034;9.800;2023-02-28T14:08:03;0.70;99.90
20035;DHT22;10178;48.034;9.800;2023-02-28T14:10:32;0.80;99.90
20035;DHT22;10178;48.034;9.800;2023-02-28T14:13:03;1.00;99.90
20035;DHT22;10178;48.034;9.800;2023-02-28T14:15:46;1.00;99.90
20035;DHT22;10178;48.034;9.800;2023-02-28T14:18:22;1.00;99.90
20035;DHT22;10178;48.034;9.800;2023-02-28T14:20:55;1.10;99.90
20035;DHT22;10178;48.034;9.800;2023-02-28T14:29:41;1.10;99.90
20035;DHT22;10178;48.034;9.800;2023-02-28T14:32:28;1.20;99.90
20035;DHT22;10178;48.034;9.800;2023-02-28T14:37:52;1.20;99.90
20035;DHT22;10178;48.034;9.800;2023-02-28T14:40:30;1.20;99.90
20035;DHT22;10178;48.034;9.800;2023-02-28T14:43:27;1.20;99.90
20035;DHT22;10178;48.034;9.800;2023-02-28T14:46:01;1.10;99.90
20035;DHT22;10178;48.034;9.800;2023-02-28T14:48:27;1.30;99.90
20035;DHT22;10178;48.034;9.800;2023-02-28T14:50:59;1.30;99.90
20035;DHT22;10178;48.034;9.800;2023-02-28T14:53:28;1.30;99.90
20035;DHT22;10178;48.034;9.800;2023-02-28T14:55:54;1.40;99.90
20035;DHT22;10178;48.034;9.800;2023-02-28T14:58:29;1.40;99.90
20035;DHT22;10178;48.034;9.800;2023-02-28T15:00:58;1.50;99.90
20035;DHT22;10178;48.034;9.800;2023-02-28T15:03:38;1.50;99.90
20035;DHT22;10178;48.034;9.800;2023-02-28T15:06:16;1.50;99.90
20035;DHT22;10178;48.034;9.800;2023-02-28T15:08:43;1.50;99.90
20035;DHT22;10178;48.034;9.800;2023-02-28T15:11:13;1.40;99.90
20035;DHT22;10178;48.034;9.800;2023-02-28T15:16:20;1.60;99.90
20035;DHT22;10178;48.034;9.800;2023-02-28T15:19:15;1.80;99.90
20035;DHT22;10178;48.034;9.800;2023-02-28T15:21:47;2.10;99.90
20035;DHT22;10178;48.034;9.800;2023-02-28T15:24:23;2.00;99.90
20035;DHT22;10178;48.034;9.800;2023-02-28T15:27:00;1.90;99.90
20035;DHT22;10178;48.034;9.800;2023-02-28T15:29:29;1.80;99.90
20035;DHT22;10178;48.034;9.800;2023-02-28T15:31:59;1.70;99.90
20035;DHT22;10178;48.034;9.800;2023-02-28T15:34:44;1.90;99.90
20035;DHT22;10178;48.034;9.800;2023-02-28T15:39:56;2.60;99.90
20035;DHT22;10178;48.034;9.800;2023-02-28T15:42:26;2.30;99.90
20035;DHT22;10178;48.034;9.800;2023-02-28T15:44:53;2.30;99.90
20035;DHT22;10178;48.034;9.800;2023-02-28T15:47:40;2.70;99.90
20035;DHT22;10178;48.034;9.800;2023-02-28T15:50:18;2.80;99.90
20035;DHT22;10178;48.034;9.800;2023-02-28T15:53:15;2.90;99.90
20035;DHT22;10178;48.034;9.800;2023-02-28T15:59:37;3.60;99.90
20035;DHT22;10178;48.034;9.800;2023-02-28T16:02:44;3.30;99.90
20035;DHT22;10178;48.034;9.800;2023-02-28T16:09:21;4.20;99.90
20035;DHT22;10178;48.034;9.800;2023-02-28T16:12:40;4.90;99.90
20035;DHT22;10178;48.034;9.800;2023-02-28T16:15:14;5.00;99.90
20035;DHT22;10178;48.034;9.800;2023-02-28T16:17:42;4.80;99.90
20035;DHT22;10178;48.034;9.800;2023-02-28T16:20:20;4.70;99.90
20035;DHT22;10178;48.034;9.800;2023-02-28T16:22:46;5.10;99.90
20035;DHT22;10178;48.034;9.800;2023-02-28T16:25:33;5.20;99.90
20035;DHT22;10178;48.034;9.800;2023-02-28T16:28:20;4.80;99.90
20035;DHT22;10178;48.034;9.800;2023-02-28T16:30:46;5.00;99.90
20035;DHT22;10178;48.034;9.800;2023-02-28T16:33:12;5.20;99.90
20035;DHT22;10178;48.034;9.800;2023-02-28T16:35:37;4.80;99.90
20035;DHT22;10178;48.034;9.800;2023-02-28T16:38:04;5.10;99.90
20035;DHT22;10178;48.034;9.800;2023-02-28T16:40:33;5.00;99.90
20035;DHT22;10178;48.034;9.800;2023-02-28T16:43:00;5.10;99.90
20035;DHT22;10178;48.034;9.800;2023-02-28T16:45:29;5.40;99.90
20035;DHT22;10178;48.034;9.800;2023-02-28T16:47:55;5.40;99.90
20035;DHT22;10178;48.034;9.800;2023-02-28T16:50:23;5.50;99.90
20035;DHT22;10178;48.034;9.800;2023-02-28T16:52:50;5.60;99.90
20035;DHT22;10178;48.034;9.800;2023-02-28T16:55:18;5.60;99.90
20035;DHT22;10178;48.034;9.800;2023-02-28T16:57:52;5.60;99.90
20035;DHT22;10178;48.034;9.800;2023-02-28T17:00:19;5.60;99.90
20035;DHT22;10178;48.034;9.800;2023-02-28T17:02:44;5.60;99.90
20035;DHT22;10178;48.034;9.800;2023-02-28T17:05:13;5.70;99.90
20035;DHT22;10178;48.034;9.800;2023-02-28T17:07:41;5.60;99.90
20035;DHT22;10178;48.034;9.800;2023-02-28T17:10:20;5.60;99.90
20035;DHT22;10178;48.034;9.800;2023-02-28T17:12:46;5.50;99.90
20035;DHT22;10178;48.034;9.800;2023-02-28T17:15:14;5.30;99.90
20035;DHT22;10178;48.034;9.800;2023-02-28T17:17:41;5.40;99.90
20035;DHT22;10178;48.034;9.800;2023-02-28T17:20:11;5.40;99.90
20035;DHT22;10178;48.034;9.800;2023-02-28T17:22:37;5.40;99.90
20035;DHT22;10178;48.034;9.800;2023-02-28T17:25:03;5.40;99.90
20035;DHT22;10178;48.034;9.800;2023-02-28T17:27:29;5.30;99.90
20035;DHT22;10178;48.034;9.800;2023-02-28T17:29:54;5.30;99.90
20035;DHT22;10178;48.034;9.800;2023-02-28T17:32:20;5.30;99.90
20035;DHT22;10178;48.034;9.800;2023-02-28T17:34:45;5.30;99.90
20035;DHT22;10178;48.034;9.800;2023-02-28T17:37:11;5.20;99.90
20035;DHT22;10178;48.034;9.800;2023-02-28T17:39:37;5.20;99.90
20035;DHT22;10178;48.034;9.800;2023-02-28T17:42:02;5.20;99.90
20035;DHT22;10178;48.034;9.800;2023-02-28T17:44:28;5.20;99.90
20035;DHT22;10178;48.034;9.800;2023-02-28T17:46:54;5.20;99.90
20035;DHT22;10178;48.034;9.800;2023-02-28T17:49:21;5.20;99.90
20035;DHT22;10178;48.034;9.800;2023-02-28T17:51:49;5.10;99.90
20035;DHT22;10178;48.034;9.800;2023-02-28T17:58:04;4.80;99.90
20035;DHT22;10178;48.034;9.800;2023-02-28T18:04:28;4.80;99.90
20035;DHT22;10178;48.034;9.800;2023-02-28T18:13:44;4.80;99.90
20035;DHT22;10178;48.034;9.800;2023-02-28T18:19:49;4.70;99.90
20035;DHT22;10178;48.034;9.800;2023-02-28T18:22:55;4.70;99.90
20035;DHT22;10178;48.034;9.800;2023-02-28T18:26:10;4.70;99.90
20035;DHT22;10178;48.034;9.800;2023-02-28T18:28:36;4.50;99.90
20035;DHT22;10178;48.034;9.800;2023-02-28T18:33:28;4.50;99.90
20035;DHT22;10178;48.034;9.800;2023-02-28T18:35:57;4.40;99.90
20035;DHT22;10178;48.034;9.800;2023-02-28T18:38:22;4.40;99.90
20035;DHT22;10178;48.034;9.800;2023-02-28T18:41:06;4.10;99.90
20035;DHT22;10178;48.034;9.800;2023-02-28T18:43:34;4.20;99.90
20035;DHT22;10178;48.034;9.800;2023-02-28T18:46:09;4.30;99.90
20035;DHT22;10178;48.034;9.800;2023-02-28T18:48:36;4.30;99.90